Time;durP1;ratioP1;P1;durP2;ratioP2;P2;SDS_P1;SDS_P2;PMS_P1;PMS_P2;Temp;Humidity;BMP_temperature;BMP_pressure;BME280_temperature;BME280_humidity;BME280_pressure;Samples;Min_cycle;Max_cycle;Signal;HPM_P1;HPM_P2
2023/03/06 00:02:19;;;;;;;16.77;13.90;;;4.00;99.90;;;;;;6052046;23;20189;-64
2023/03/06 00:04:46;;;;;;;15.60;12.40;;;4.10;99.90;;;;;;6055608;23;20258;-64
2023/03/06 00:07:13;;;;;;;16.35;12.73;;;4.10;99.90;;;;;;6045834;23;20220;-64
2023/03/06 00:09:40;;;;;;;17.27;14.35;;;4.10;99.90;;;;;;6050817;23;20267;-64
2023/03/06 00:12:08;;;;;;;17.02;13.75;;;4.10;99.90;;;;;;6048458;23;20940;-64
2023/03/06 00:14:36;;;;;;;15.00;13.35;;;4.10;99.90;;;;;;6057675;23;20188;-64
2023/03/06 00:17:03;;;;;;;17.83;14.55;;;4.10;99.90;;;;;;6058584;23;20637;-65
2023/03/06 00:19:30;;;;;;;17.20;14.20;;;4.10;99.90;;;;;;6052470;23;20275;-64
2023/03/06 00:21:57;;;;;;;14.80;12.68;;;4.20;99.90;;;;;;6057274;23;20269;-65
2023/03/06 00:24:24;;;;;;;17.92;14.35;;;4.20;99.90;;;;;;6044464;23;20251;-64
2023/03/06 00:26:51;;;;;;;15.48;13.20;;;4.20;99.90;;;;;;6034088;23;20209;-64
2023/03/06 00:29:18;;;;;;;18.38;13.55;;;4.30;99.90;;;;;;6060708;23;20611;-65
2023/03/06 00:31:47;;;;;;;18.48;13.90;;;4.30;99.90;;;;;;6053526;23;20271;-65
2023/03/06 00:34:14;;;;;;;15.55;12.75;;;4.30;99.90;;;;;;6051646;23;20279;-64
2023/03/06 00:36:41;;;;;;;18.45;13.70;;;4.30;99.90;;;;;;6049052;23;20188;-65
2023/03/06 00:39:08;;;;;;;16.52;12.13;;;4.30;99.90;;;;;;6059748;23;20224;-64
2023/03/06 00:41:35;;;;;;;16.20;12.75;;;4.30;99.90;;;;;;6048361;23;20203;-64
2023/03/06 00:44:02;;;;;;;15.98;12.55;;;4.30;99.90;;;;;;6060293;23;20276;-64
2023/03/06 00:46:29;;;;;;;13.15;11.85;;;4.30;99.90;;;;;;6056948;23;20220;-64
2023/03/06 00:48:58;;;;;;;14.10;12.18;;;4.30;99.90;;;;;;6059367;23;20254;-64
2023/03/06 00:51:25;;;;;;;14.60;11.65;;;4.30;99.90;;;;;;6054083;23;20281;-64
2023/03/06 00:53:52;;;;;;;14.02;11.50;;;4.40;99.90;;;;;;6059295;23;20271;-65
2023/03/06 00:56:19;;;;;;;14.52;12.30;;;4.40;99.90;;;;;;6050576;23;20223;-64
2023/03/06 00:58:46;;;;;;;14.20;11.93;;;4.40;99.90;;;;;;6053716;23;20199;-64
2023/03/06 01:01:13;;;;;;;20.08;11.95;;;4.40;99.90;;;;;;6050148;23;20189;-64
2023/03/06 01:03:40;;;;;;;14.40;11.60;;;4.40;99.90;;;;;;6051678;23;20287;-65
2023/03/06 01:06:09;;;;;;;15.07;12.40;;;4.30;99.90;;;;;;6060507;23;20276;-65
2023/03/06 01:08:35;;;;;;;15.50;12.90;;;4.30;99.90;;;;;;6056620;23;20212;-65
2023/03/06 01:11:03;;;;;;;14.95;11.38;;;4.20;99.90;;;;;;6040687;23;20272;-64
2023/03/06 01:13:30;;;;;;;17.33;14.23;;;4.00;99.90;;;;;;6055862;23;20197;-63
2023/03/06 01:16:06;;;;;;;16.75;13.80;;;3.90;99.90;;;;;;6035866;23;20227;-63
2023/03/06 01:18:33;;;;;;;18.75;12.77;;;3.80;99.90;;;;;;6039986;23;20990;-64
2023/03/06 01:21:00;;;;;;;16.55;13.40;;;3.80;99.90;;;;;;6053499;23;20227;-65
2023/03/06 01:23:28;;;;;;;15.45;12.90;;;3.80;99.90;;;;;;6051492;23;20297;-64
2023/03/06 01:25:56;;;;;;;16.23;12.27;;;3.80;99.90;;;;;;6052564;23;20246;-63
2023/03/06 01:28:23;;;;;;;15.15;12.48;;;3.80;99.90;;;;;;6044476;23;20217;-64
2023/03/06 01:30:51;;;;;;;16.65;12.80;;;3.80;99.90;;;;;;6048672;23;20193;-64
2023/03/06 01:33:19;;;;;;;15.02;11.65;;;3.80;99.90;;;;;;6055238;23;20195;-65
2023/03/06 01:35:47;;;;;;;13.65;11.30;;;3.80;99.90;;;;;;6055961;23;20200;-64
2023/03/06 01:38:14;;;;;;;14.32;10.77;;;3.80;99.90;;;;;;6050819;23;20292;-65
2023/03/06 01:40:43;;;;;;;12.77;10.75;;;3.90;99.90;;;;;;6047928;23;20224;-64
2023/03/06 01:43:12;;;;;;;15.45;12.35;;;3.90;99.90;;;;;;6055440;23;20212;-64
2023/03/06 01:46:16;;;;;;;13.95;12.15;;;4.00;99.90;;;;;;6051538;23;20196;-64
2023/03/06 01:48:44;;;;;;;13.43;11.70;;;4.00;99.90;;;;;;6035272;23;20198;-64
2023/03/06 01:51:12;;;;;;;13.90;10.15;;;4.00;99.90;;;;;;6050515;23;20193;-64
2023/03/06 01:53:42;;;;;;;14.75;11.57;;;4.00;99.90;;;;;;6045138;23;20216;-63
2023/03/06 01:56:12;;;;;;;14.38;10.57;;;4.00;99.90;;;;;;6042935;23;20189;-64
2023/03/06 01:58:42;;;;;;;13.65;10.85;;;4.00;99.90;;;;;;6059137;23;20638;-64
2023/03/06 02:01:10;;;;;;;12.77;11.07;;;4.00;99.90;;;;;;6057632;23;20255;-65
2023/03/06 02:03:38;;;;;;;12.07;10.75;;;4.00;99.90;;;;;;6047080;23;20196;-64
2023/03/06 02:06:06;;;;;;;12.90;11.10;;;4.00;99.90;;;;;;6053948;23;20215;-64
2023/03/06 02:08:34;;;;;;;16.05;11.50;;;4.00;99.90;;;;;;6045712;23;20300;-64
2023/03/06 02:11:09;;;;;;;12.00;10.48;;;3.90;99.90;;;;;;6053482;23;20193;-65
2023/03/06 02:13:38;;;;;;;12.30;10.80;;;3.90;99.90;;;;;;6047324;23;20653;-64
2023/03/06 02:16:07;;;;;;;11.15;10.00;;;3.90;99.90;;;;;;6049609;23;20268;-65
2023/03/06 02:18:35;;;;;;;13.77;11.27;;;3.80;99.90;;;;;;6042973;23;20194;-64
2023/03/06 02:21:06;;;;;;;13.68;10.95;;;3.80;99.90;;;;;;6049296;23;20299;-64
2023/03/06 02:23:42;;;;;;;15.20;11.25;;;3.80;99.90;;;;;;6055003;23;20296;-64
2023/03/06 02:26:12;;;;;;;13.15;11.10;;;3.80;99.90;;;;;;6048319;23;20315;-64
2023/03/06 02:28:39;;;;;;;15.82;12.18;;;3.70;99.90;;;;;;6043989;23;20263;-64
2023/03/06 02:31:07;;;;;;;12.57;11.13;;;3.70;99.90;;;;;;6050221;23;20283;-64
2023/03/06 02:33:34;;;;;;;12.32;10.93;;;3.70;99.90;;;;;;6059602;23;20629;-64
2023/03/06 02:36:03;;;;;;;13.07;11.00;;;3.70;99.90;;;;;;6059821;23;20193;-64
2023/03/06 02:38:34;;;;;;;13.15;11.27;;;3.60;99.90;;;;;;6051487;23;20216;-64
2023/03/06 02:41:03;;;;;;;13.15;10.95;;;3.60;99.90;;;;;;6054120;23;20274;-64
2023/03/06 02:43:34;;;;;;;14.30;11.70;;;3.60;99.90;;;;;;6056249;23;20195;-64
2023/03/06 02:46:02;;;;;;;12.70;10.23;;;3.60;99.90;;;;;;6058358;23;20291;-64
2023/03/06 02:48:29;;;;;;;13.93;10.88;;;3.60;99.90;;;;;;6053914;23;20205;-65
2023/03/06 02:50:56;;;;;;;14.75;12.07;;;3.30;99.90;;;;;;6058591;23;20271;-64
2023/03/06 02:53:24;;;;;;;13.95;10.50;;;3.70;99.90;;;;;;6056058;23;20246;-65
2023/03/06 02:55:52;;;;;;;11.77;9.65;;;3.70;99.90;;;;;;6053925;23;20649;-64
2023/03/06 02:58:19;;;;;;;12.60;10.20;;;3.60;99.90;;;;;;6058168;23;20213;-63
2023/03/06 03:00:48;;;;;;;11.10;9.93;;;3.60;99.90;;;;;;6059301;23;20221;-63
2023/03/06 03:03:16;;;;;;;12.98;9.95;;;3.60;99.90;;;;;;6047425;23;20200;-64
2023/03/06 03:05:43;;;;;;;11.45;9.38;;;3.60;99.90;;;;;;6057070;23;20224;-64
2023/03/06 03:08:10;;;;;;;12.60;9.27;;;3.60;99.90;;;;;;6045772;23;20209;-65
2023/03/06 03:10:37;;;;;;;12.35;10.35;;;3.50;99.90;;;;;;6056261;23;20189;-63
2023/03/06 03:13:04;;;;;;;11.50;9.80;;;3.50;99.90;;;;;;6049070;23;20723;-64
2023/03/06 03:15:31;;;;;;;10.27;9.23;;;3.50;99.90;;;;;;6054335;23;20184;-64
2023/03/06 03:17:59;;;;;;;12.13;9.40;;;3.50;99.90;;;;;;6038233;23;20236;-63
2023/03/06 03:20:26;;;;;;;10.02;8.93;;;3.50;99.90;;;;;;6059760;23;20213;-64
2023/03/06 03:22:55;;;;;;;10.80;9.52;;;3.50;99.90;;;;;;6049036;23;20189;-65
2023/03/06 03:25:23;;;;;;;10.13;8.90;;;3.50;99.90;;;;;;6033111;23;20279;-64
2023/03/06 03:27:51;;;;;;;10.32;9.02;;;3.50;99.90;;;;;;6057949;23;20212;-64
2023/03/06 03:30:18;;;;;;;11.27;9.60;;;3.50;99.90;;;;;;6052617;23;20200;-64
2023/03/06 03:32:45;;;;;;;10.70;8.90;;;3.50;99.90;;;;;;6058838;23;20266;-64
2023/03/06 03:35:14;;;;;;;10.68;8.82;;;3.50;99.90;;;;;;6058804;23;20290;-63
2023/03/06 03:37:41;;;;;;;11.13;9.13;;;3.50;99.90;;;;;;6056776;23;20231;-64
2023/03/06 03:40:10;;;;;;;10.27;7.63;;;3.40;99.90;;;;;;6057429;23;20291;-64
2023/03/06 03:42:37;;;;;;;10.70;8.48;;;3.50;99.90;;;;;;6054693;23;21200;-65
2023/03/06 03:45:05;;;;;;;9.18;8.27;;;3.50;99.90;;;;;;6045657;23;20282;-65
2023/03/06 03:47:31;;;;;;;9.77;8.00;;;3.50;99.90;;;;;;6040748;23;20703;-64
2023/03/06 03:49:58;;;;;;;9.95;9.00;;;3.50;99.90;;;;;;6056433;23;20243;-64
2023/03/06 03:52:27;;;;;;;11.13;8.85;;;3.50;99.90;;;;;;6058658;23;20220;-64
2023/03/06 03:54:54;;;;;;;9.80;8.80;;;3.60;99.90;;;;;;6053259;23;20276;-63
2023/03/06 03:57:21;;;;;;;10.90;8.90;;;3.60;99.90;;;;;;6040746;23;20633;-64
2023/03/06 03:59:48;;;;;;;10.05;8.55;;;3.60;99.90;;;;;;6058014;23;20193;-63
2023/03/06 04:02:15;;;;;;;10.80;8.63;;;3.60;99.90;;;;;;6042456;23;20264;-64
2023/03/06 04:04:42;;;;;;;10.25;8.77;;;3.60;99.90;;;;;;6044791;23;20728;-64
2023/03/06 04:07:10;;;;;;;9.63;7.97;;;3.60;99.90;;;;;;6041515;23;20543;-64
2023/03/06 04:09:38;;;;;;;8.52;7.68;;;3.50;99.90;;;;;;6055153;23;20276;-63
2023/03/06 04:12:05;;;;;;;9.57;7.93;;;3.50;99.90;;;;;;6061635;23;20559;-64
2023/03/06 04:14:32;;;;;;;10.60;8.80;;;3.50;99.90;;;;;;6039748;23;20189;-64
2023/03/06 04:16:59;;;;;;;9.85;8.85;;;3.60;99.90;;;;;;6061694;23;20245;-64
2023/03/06 04:19:27;;;;;;;10.18;8.35;;;3.60;99.90;;;;;;6039864;23;20193;-64
2023/03/06 04:21:54;;;;;;;12.23;8.23;;;3.60;99.90;;;;;;6044963;23;20765;-64
2023/03/06 04:24:21;;;;;;;9.52;8.55;;;3.60;99.90;;;;;;6051332;23;20195;-64
2023/03/06 04:26:50;;;;;;;11.05;8.43;;;3.60;99.90;;;;;;6061305;23;20287;-64
2023/03/06 04:29:17;;;;;;;9.48;7.97;;;3.60;99.90;;;;;;6060435;23;20188;-64
2023/03/06 04:31:44;;;;;;;10.05;8.23;;;3.60;99.90;;;;;;6052424;23;20699;-64
2023/03/06 04:34:11;;;;;;;9.88;7.90;;;3.60;99.90;;;;;;6061562;23;20651;-64
2023/03/06 04:36:43;;;;;;;8.48;7.57;;;3.60;99.90;;;;;;6060804;23;20680;-64
2023/03/06 04:39:11;;;;;;;10.52;8.50;;;3.60;99.90;;;;;;6060174;23;20189;-64
2023/03/06 04:41:38;;;;;;;9.20;8.27;;;3.60;99.90;;;;;;6054392;23;20220;-65
2023/03/06 04:44:07;;;;;;;10.57;8.75;;;3.60;99.90;;;;;;6059985;23;20192;-63
2023/03/06 04:46:35;;;;;;;10.30;8.80;;;3.60;99.90;;;;;;6053107;23;20212;-64
2023/03/06 04:49:02;;;;;;;11.43;8.50;;;3.60;99.90;;;;;;6050689;23;20280;-64
2023/03/06 04:51:29;;;;;;;9.43;7.38;;;3.60;99.90;;;;;;6053307;23;20195;-64
2023/03/06 04:53:56;;;;;;;10.43;8.43;;;3.50;99.90;;;;;;6060291;23;20197;-64
2023/03/06 04:56:24;;;;;;;9.70;8.70;;;3.50;99.90;;;;;;6056442;23;20213;-64
2023/03/06 04:58:51;;;;;;;10.48;8.40;;;3.50;99.90;;;;;;6054024;23;20239;-65
2023/03/06 05:01:19;;;;;;;11.00;9.55;;;3.50;99.90;;;;;;6048699;23;20706;-63
2023/03/06 05:03:46;;;;;;;10.00;7.95;;;3.40;99.90;;;;;;6055028;23;20196;-64
2023/03/06 05:06:13;;;;;;;10.18;8.93;;;3.40;99.90;;;;;;6048621;23;20603;-64
2023/03/06 05:08:40;;;;;;;11.10;8.73;;;3.30;99.90;;;;;;6048601;23;20203;-64
2023/03/06 05:11:07;;;;;;;9.85;8.55;;;3.30;99.90;;;;;;6061525;23;20242;-64
2023/03/06 05:13:34;;;;;;;11.93;8.95;;;3.20;99.90;;;;;;6052582;23;20408;-65
2023/03/06 05:16:02;;;;;;;12.07;9.32;;;3.20;99.90;;;;;;6054861;23;20222;-63
2023/03/06 05:18:30;;;;;;;10.55;9.05;;;3.20;99.90;;;;;;6058408;23;20247;-64
2023/03/06 05:20:58;;;;;;;11.57;9.20;;;3.20;99.90;;;;;;6063096;23;20244;-64
2023/03/06 05:23:26;;;;;;;11.23;8.40;;;3.20;99.90;;;;;;6060787;23;20250;-64
2023/03/06 05:25:53;;;;;;;9.77;8.77;;;3.20;99.90;;;;;;6060137;23;20230;-64
2023/03/06 05:28:20;;;;;;;14.45;10.40;;;3.10;99.90;;;;;;6058217;23;20704;-64
2023/03/06 05:30:47;;;;;;;10.57;9.32;;;3.10;99.90;;;;;;6037720;23;20311;-64
2023/03/06 05:33:15;;;;;;;10.85;9.50;;;3.20;99.90;;;;;;6049205;23;20195;-64
2023/03/06 05:35:46;;;;;;;11.25;8.30;;;3.20;99.90;;;;;;6053381;23;20202;-64
2023/03/06 05:38:13;;;;;;;11.07;9.70;;;3.20;99.90;;;;;;6059170;23;20274;-64
2023/03/06 05:40:41;;;;;;;11.93;9.77;;;3.20;99.90;;;;;;6051492;23;20275;-64
2023/03/06 05:43:10;;;;;;;10.70;9.23;;;3.10;99.90;;;;;;6051549;23;20195;-68
2023/03/06 05:45:37;;;;;;;10.88;8.88;;;3.20;99.90;;;;;;6048700;23;20183;-64
2023/03/06 05:48:05;;;;;;;10.07;8.88;;;3.20;99.90;;;;;;6052581;23;20206;-65
2023/03/06 05:50:32;;;;;;;11.50;9.15;;;3.20;99.90;;;;;;6060839;23;20245;-64
2023/03/06 05:53:01;;;;;;;10.80;9.02;;;3.20;99.90;;;;;;6044806;23;20185;-65
2023/03/06 05:55:28;;;;;;;12.00;9.43;;;3.20;99.90;;;;;;6052255;23;20193;-65
2023/03/06 05:57:55;;;;;;;10.50;8.52;;;3.20;99.90;;;;;;6058610;23;20370;-65
2023/03/06 06:00:23;;;;;;;12.57;9.95;;;3.20;99.90;;;;;;6046624;23;20652;-65
2023/03/06 06:02:50;;;;;;;12.25;9.40;;;3.20;99.90;;;;;;6053965;23;20539;-65
2023/03/06 06:05:17;;;;;;;10.00;8.85;;;3.20;99.90;;;;;;6053201;23;20249;-65
2023/03/06 06:07:44;;;;;;;10.05;8.45;;;3.20;99.90;;;;;;6051732;23;20200;-64
2023/03/06 06:10:12;;;;;;;10.63;9.40;;;3.20;99.90;;;;;;6059405;23;20272;-64
2023/03/06 06:12:39;;;;;;;11.60;9.30;;;3.20;99.90;;;;;;6050738;23;20199;-73
2023/03/06 06:15:08;;;;;;;12.05;8.63;;;3.20;99.90;;;;;;6045716;23;20189;-65
2023/03/06 06:17:35;;;;;;;12.52;10.00;;;3.20;99.90;;;;;;6049971;23;20201;-64
2023/03/06 06:20:03;;;;;;;11.48;9.20;;;3.20;99.90;;;;;;6056180;23;20184;-64
2023/03/06 06:22:30;;;;;;;12.27;9.27;;;3.20;99.90;;;;;;6056442;23;20219;-64
2023/03/06 06:24:57;;;;;;;11.98;9.13;;;3.20;99.90;;;;;;6049711;23;20209;-65
2023/03/06 06:27:26;;;;;;;14.05;9.82;;;3.30;99.90;;;;;;6050613;23;20211;-64
2023/03/06 06:29:53;;;;;;;11.75;9.00;;;3.30;99.90;;;;;;6052472;23;20567;-64
2023/03/06 06:32:20;;;;;;;13.90;9.85;;;3.30;99.90;;;;;;6058744;23;20257;-65
2023/03/06 06:34:47;;;;;;;13.43;8.90;;;3.30;99.90;;;;;;6051248;23;20185;-65
2023/03/06 06:37:14;;;;;;;11.70;9.20;;;3.30;99.90;;;;;;6047554;23;20235;-65
2023/03/06 06:39:41;;;;;;;11.10;8.93;;;3.30;99.90;;;;;;6053422;23;20193;-64
2023/03/06 06:42:08;;;;;;;9.73;8.73;;;3.30;99.90;;;;;;6057095;23;20209;-64
2023/03/06 06:44:37;;;;;;;12.50;8.90;;;3.30;99.90;;;;;;6030951;23;20189;-65
2023/03/06 06:47:05;;;;;;;11.77;9.32;;;3.30;99.90;;;;;;6050946;23;20213;-65
2023/03/06 06:49:32;;;;;;;13.05;9.75;;;3.30;99.90;;;;;;6046323;23;20637;-66
2023/03/06 06:52:00;;;;;;;10.40;9.10;;;3.40;99.90;;;;;;6051459;23;20223;-64
2023/03/06 06:54:27;;;;;;;12.13;9.25;;;3.40;99.90;;;;;;6040513;23;20208;-64
2023/03/06 06:56:54;;;;;;;12.45;10.13;;;3.40;99.90;;;;;;6047996;23;20279;-64
2023/03/06 06:59:22;;;;;;;14.48;10.02;;;3.40;99.90;;;;;;6056830;23;20192;-65
2023/03/06 07:01:52;;;;;;;13.48;10.02;;;3.40;99.90;;;;;;6043081;23;20210;-64
2023/03/06 07:04:19;;;;;;;12.48;9.35;;;3.40;99.90;;;;;;6054528;23;20196;-63
2023/03/06 07:06:46;;;;;;;11.73;9.35;;;3.50;99.90;;;;;;6054702;23;20228;-65
2023/03/06 07:09:14;;;;;;;10.45;9.00;;;3.50;99.90;;;;;;6054743;23;20291;-65
2023/03/06 07:11:41;;;;;;;10.57;8.70;;;3.50;99.90;;;;;;6054589;23;20310;-67
2023/03/06 07:14:08;;;;;;;12.00;8.98;;;3.50;99.90;;;;;;6044255;23;20204;-64
2023/03/06 07:16:35;;;;;;;10.68;8.15;;;3.50;99.90;;;;;;6049891;23;20205;-65
2023/03/06 07:19:04;;;;;;;13.40;9.15;;;3.50;99.90;;;;;;6050417;23;20192;-65
2023/03/06 07:21:31;;;;;;;12.90;8.98;;;3.60;99.90;;;;;;6054986;23;20291;-65
2023/03/06 07:23:59;;;;;;;14.10;8.60;;;3.60;99.90;;;;;;6051084;23;20723;-65
2023/03/06 07:26:26;;;;;;;11.65;8.70;;;3.60;99.90;;;;;;6058084;23;20247;-65
2023/03/06 07:28:53;;;;;;;10.95;7.90;;;3.60;99.90;;;;;;6041802;23;20181;-64
2023/03/06 07:31:22;;;;;;;11.45;8.70;;;3.70;99.90;;;;;;6050767;23;20227;-64
2023/03/06 07:33:49;;;;;;;10.30;9.27;;;3.70;99.90;;;;;;6049787;23;20191;-65
2023/03/06 07:36:18;;;;;;;10.52;8.43;;;3.80;99.90;;;;;;6057011;23;20204;-63
2023/03/06 07:38:45;;;;;;;10.05;8.60;;;3.80;99.90;;;;;;6057915;23;20196;-65
2023/03/06 07:41:14;;;;;;;11.85;9.23;;;3.80;99.90;;;;;;6042550;23;20299;-63
2023/03/06 07:43:41;;;;;;;9.90;8.15;;;3.80;99.90;;;;;;6044122;23;20185;-65
2023/03/06 07:46:09;;;;;;;12.30;8.73;;;3.80;99.90;;;;;;6055524;23;20284;-64
2023/03/06 07:48:38;;;;;;;10.45;8.45;;;3.80;99.90;;;;;;6041135;23;20212;-63
2023/03/06 07:51:07;;;;;;;11.18;8.00;;;3.80;99.90;;;;;;6053115;23;20573;-64
2023/03/06 07:53:35;;;;;;;11.30;8.10;;;3.90;99.90;;;;;;6052835;23;20185;-65
2023/03/06 07:56:07;;;;;;;10.25;8.38;;;3.80;99.90;;;;;;6036424;23;20268;-64
2023/03/06 07:58:35;;;;;;;9.15;7.80;;;3.80;99.90;;;;;;6045651;23;20181;-64
2023/03/06 08:01:04;;;;;;;9.20;7.70;;;3.80;99.90;;;;;;6037795;23;20216;-64
2023/03/06 08:03:31;;;;;;;11.00;8.88;;;3.90;99.90;;;;;;6043178;23;20205;-65
2023/03/06 08:06:06;;;;;;;12.15;8.98;;;3.90;99.90;;;;;;6038640;23;20210;-64
2023/03/06 08:08:34;;;;;;;12.02;8.68;;;3.90;99.90;;;;;;6036013;23;20180;-64
2023/03/06 08:11:03;;;;;;;9.73;7.95;;;3.90;99.90;;;;;;6049926;23;20961;-65
2023/03/06 08:13:30;;;;;;;10.05;8.38;;;4.00;99.90;;;;;;6053375;23;20199;-64
2023/03/06 08:15:58;;;;;;;9.25;8.20;;;4.10;99.90;;;;;;6056269;23;20866;-65
2023/03/06 08:18:26;;;;;;;10.13;8.52;;;4.10;99.90;;;;;;6049199;23;20192;-64
2023/03/06 08:21:01;;;;;;;9.90;8.85;;;4.10;99.90;;;;;;6056934;23;20397;-64
2023/03/06 08:23:28;;;;;;;11.30;9.35;;;4.10;99.90;;;;;;6047597;23;20256;-65
2023/03/06 08:25:56;;;;;;;10.25;8.20;;;4.20;99.90;;;;;;6045622;23;20209;-65
2023/03/06 08:28:25;;;;;;;10.85;9.35;;;4.20;99.90;;;;;;6033928;23;20184;-64
2023/03/06 08:30:52;;;;;;;9.80;8.63;;;4.30;99.90;;;;;;6039535;23;20181;-65
2023/03/06 08:33:19;;;;;;;9.88;8.23;;;4.40;99.90;;;;;;6037701;23;20251;-65
2023/03/06 08:35:46;;;;;;;11.75;9.05;;;4.40;99.90;;;;;;6045146;23;20655;-65
2023/03/06 08:38:13;;;;;;;10.52;9.02;;;4.40;99.90;;;;;;6042432;23;20189;-64
2023/03/06 08:40:40;;;;;;;11.45;8.57;;;4.40;99.90;;;;;;6044008;23;20260;-65
2023/03/06 08:43:09;;;;;;;11.40;9.30;;;4.40;99.90;;;;;;6046945;23;20213;-65
2023/03/06 08:45:38;;;;;;;10.55;7.85;;;4.60;99.90;;;;;;6045146;23;20240;-64
2023/03/06 08:48:05;;;;;;;11.55;9.45;;;4.80;99.90;;;;;;6042929;23;20212;-65
2023/03/06 08:50:32;;;;;;;10.90;8.95;;;4.90;99.90;;;;;;6041689;23;20648;-65
2023/03/06 08:52:59;;;;;;;12.02;8.45;;;5.00;99.90;;;;;;6043689;23;20675;-67
2023/03/06 08:55:27;;;;;;;11.38;9.32;;;5.20;99.90;;;;;;6050195;23;20247;-66
2023/03/06 08:57:55;;;;;;;11.73;10.20;;;5.30;99.90;;;;;;6044433;23;20228;-65
2023/03/06 09:00:23;;;;;;;11.73;9.63;;;5.40;99.90;;;;;;6050482;23;20181;-66
2023/03/06 09:02:51;;;;;;;11.18;8.98;;;5.60;99.90;;;;;;6056431;23;20216;-65
2023/03/06 09:05:18;;;;;;;10.57;9.15;;;5.50;99.90;;;;;;6048617;23;20228;-65
2023/03/06 09:07:45;;;;;;;10.82;9.68;;;5.50;99.90;;;;;;6043938;23;20207;-66
2023/03/06 09:10:14;;;;;;;10.52;9.20;;;5.60;99.90;;;;;;6049655;23;20182;-66
2023/03/06 09:12:41;;;;;;;10.25;8.27;;;5.60;99.90;;;;;;6049348;23;20510;-65
2023/03/06 09:15:10;;;;;;;9.25;8.30;;;5.60;99.90;;;;;;6039266;23;20193;-66
2023/03/06 09:17:37;;;;;;;10.90;9.02;;;5.60;99.90;;;;;;6051034;23;20213;-65
2023/03/06 09:20:08;;;;;;;10.18;9.15;;;5.60;99.90;;;;;;6044017;23;20185;-66
2023/03/06 09:22:35;;;;;;;11.73;9.45;;;5.50;99.90;;;;;;6044776;23;20224;-65
2023/03/06 09:25:03;;;;;;;11.18;9.98;;;5.50;99.90;;;;;;6048983;23;20224;-65
2023/03/06 09:27:30;;;;;;;10.73;9.57;;;5.50;99.90;;;;;;6046205;23;20205;-65
2023/03/06 09:29:57;;;;;;;10.88;9.50;;;5.40;99.90;;;;;;6055648;23;20319;-65
2023/03/06 09:32:24;;;;;;;10.95;8.65;;;5.30;99.90;;;;;;6047867;23;20657;-65
2023/03/06 09:34:51;;;;;;;11.38;9.18;;;5.20;99.90;;;;;;6052129;23;20260;-65
2023/03/06 09:37:20;;;;;;;12.55;9.50;;;5.20;99.90;;;;;;6034593;23;20259;-65
2023/03/06 09:39:46;;;;;;;13.43;9.85;;;5.10;99.90;;;;;;6055559;23;20597;-65
2023/03/06 09:42:17;;;;;;;10.25;9.13;;;5.00;99.90;;;;;;6052126;23;20236;-66
2023/03/06 09:44:49;;;;;;;10.55;8.75;;;5.00;99.90;;;;;;6042054;23;20299;-66
2023/03/06 09:47:35;;;;;;;10.55;9.35;;;4.90;99.90;;;;;;6041478;23;20287;-65
2023/03/06 09:50:15;;;;;;;11.93;9.13;;;4.90;99.90;;;;;;6052499;23;20184;-65
2023/03/06 09:52:48;;;;;;;10.35;8.50;;;4.80;99.90;;;;;;6020748;23;21226;-64
2023/03/06 09:55:18;;;;;;;13.98;10.05;;;4.80;99.90;;;;;;6012256;23;20181;-66
2023/03/06 09:57:54;;;;;;;10.75;9.10;;;4.90;99.90;;;;;;6026564;23;20223;-65
2023/03/06 10:00:27;;;;;;;11.70;10.48;;;4.90;99.90;;;;;;6042965;23;21684;-64
2023/03/06 10:03:00;;;;;;;11.38;9.02;;;4.90;99.90;;;;;;6033493;23;20209;-65
2023/03/06 10:05:35;;;;;;;12.25;9.75;;;5.00;99.90;;;;;;6033375;23;20181;-65
2023/03/06 10:08:07;;;;;;;10.07;9.07;;;5.00;99.90;;;;;;6031525;23;20581;-65
2023/03/06 10:10:43;;;;;;;14.60;9.80;;;5.00;99.90;;;;;;6025116;23;20181;-65
2023/03/06 10:13:17;;;;;;;9.65;8.75;;;5.00;99.90;;;;;;6032786;23;20240;-65
2023/03/06 10:15:46;;;;;;;9.70;8.35;;;5.00;99.90;;;;;;6033170;23;20189;-65
2023/03/06 10:18:13;;;;;;;10.43;8.90;;;5.10;99.90;;;;;;6024964;23;20204;-77
2023/03/06 10:20:48;;;;;;;10.18;9.10;;;5.20;99.90;;;;;;6024070;23;20716;-67
2023/03/06 10:23:35;;;;;;;12.68;10.02;;;5.30;99.90;;;;;;6035250;23;20232;-67
2023/03/06 10:26:12;;;;;;;10.68;8.63;;;5.40;99.90;;;;;;6046145;23;20227;-67
2023/03/06 10:28:42;;;;;;;11.73;9.38;;;5.40;99.90;;;;;;6053067;23;20243;-67
2023/03/06 10:31:13;;;;;;;11.10;9.25;;;5.30;99.90;;;;;;6045621;23;20272;-66
2023/03/06 10:33:52;;;;;;;11.13;9.65;;;5.20;99.90;;;;;;6056084;23;20181;-67
2023/03/06 10:36:23;;;;;;;12.52;8.90;;;5.10;99.90;;;;;;6055922;23;20204;-67
2023/03/06 10:38:53;;;;;;;9.90;8.90;;;5.20;99.90;;;;;;6036431;23;20186;-66
2023/03/06 10:41:27;;;;;;;10.23;9.23;;;5.20;99.90;;;;;;6035070;23;20193;-66
2023/03/06 10:44:20;;;;;;;10.70;8.30;;;5.20;99.90;;;;;;6040938;23;20425;-66
2023/03/06 10:46:50;;;;;;;9.80;8.80;;;5.20;99.90;;;;;;6045662;23;20240;-67
2023/03/06 10:49:26;;;;;;;11.60;9.18;;;5.20;99.90;;;;;;6042132;23;20188;-67
2023/03/06 10:51:59;;;;;;;10.63;8.70;;;5.20;99.90;;;;;;6046269;23;20251;-67
2023/03/06 10:54:29;;;;;;;11.23;9.77;;;5.20;99.90;;;;;;6050359;23;20196;-66
2023/03/06 10:56:56;;;;;;;9.07;7.70;;;5.20;99.90;;;;;;6046064;23;20624;-67
2023/03/06 10:59:27;;;;;;;9.30;8.20;;;5.20;99.90;;;;;;6055527;23;20276;-66
2023/03/06 11:01:56;;;;;;;11.45;9.18;;;5.20;99.90;;;;;;6048468;23;20266;-67
2023/03/06 11:04:27;;;;;;;10.18;8.20;;;5.20;99.90;;;;;;6052411;23;20196;-66
2023/03/06 11:07:14;;;;;;;9.55;8.35;;;5.10;99.90;;;;;;6046222;23;20292;-66
2023/03/06 11:09:43;;;;;;;10.07;8.40;;;5.20;99.90;;;;;;6051172;23;20188;-67
2023/03/06 11:12:22;;;;;;;9.10;8.05;;;5.40;99.90;;;;;;6039503;23;20280;-66
2023/03/06 11:15:08;;;;;;;9.13;8.32;;;5.60;99.90;;;;;;6038867;23;20188;-66
2023/03/06 11:17:37;;;;;;;8.65;7.70;;;5.70;99.90;;;;;;6053363;23;20205;-66
2023/03/06 11:20:17;;;;;;;9.20;7.82;;;5.80;99.90;;;;;;6051392;23;20186;-67
2023/03/06 11:22:48;;;;;;;9.82;8.80;;;5.80;99.90;;;;;;6043592;23;20258;-66
2023/03/06 11:25:18;;;;;;;8.48;7.68;;;5.90;99.90;;;;;;6045502;23;20279;-66
2023/03/06 11:27:51;;;;;;;8.90;8.00;;;5.90;99.90;;;;;;6048797;23;20529;-66
2023/03/06 11:30:23;;;;;;;9.40;8.48;;;5.80;99.90;;;;;;6052248;23;20541;-67
2023/03/06 11:32:56;;;;;;;9.10;7.97;;;5.90;99.90;;;;;;6043828;23;20558;-66
2023/03/06 11:35:25;;;;;;;9.05;8.00;;;6.00;99.90;;;;;;6053061;23;20260;-66
2023/03/06 11:37:57;;;;;;;9.30;8.40;;;5.80;99.90;;;;;;6051923;23;20615;-67
2023/03/06 11:40:31;;;;;;;9.73;7.93;;;5.70;99.90;;;;;;6052481;23;20189;-66
2023/03/06 11:43:06;;;;;;;8.73;7.70;;;5.60;99.90;;;;;;6039744;23;20216;-66
2023/03/06 11:45:40;;;;;;;9.95;8.23;;;5.50;99.90;;;;;;6052421;23;20181;-66
2023/03/06 11:48:24;;;;;;;10.15;9.15;;;5.50;99.90;;;;;;6050875;23;20589;-66
2023/03/06 11:51:04;;;;;;;9.85;8.52;;;5.60;99.90;;;;;;6052709;23;20188;-67
2023/03/06 11:53:34;;;;;;;10.85;8.00;;;5.60;99.90;;;;;;6045541;23;20180;-65
2023/03/06 11:56:18;;;;;;;9.32;8.23;;;5.70;99.90;;;;;;6051805;23;20278;-65
2023/03/06 11:59:22;;;;;;;10.10;8.40;;;5.80;99.90;;;;;;6048057;23;20242;-65
2023/03/06 12:01:54;;;;;;;9.55;7.80;;;5.90;99.90;;;;;;6038159;23;20251;-65
2023/03/06 12:04:44;;;;;;;8.60;7.80;;;6.10;99.90;;;;;;6043056;23;20282;-65
2023/03/06 12:07:26;;;;;;;9.32;8.43;;;6.40;99.90;;;;;;6031960;23;20546;-66
2023/03/06 12:09:57;;;;;;;9.80;8.43;;;6.50;99.90;;;;;;6042277;23;20186;-66
2023/03/06 12:12:50;;;;;;;9.70;8.70;;;6.60;99.90;;;;;;6041567;23;20189;-66
2023/03/06 12:15:33;;;;;;;9.32;7.72;;;6.60;99.90;;;;;;6034937;23;20185;-66
2023/03/06 12:18:24;;;;;;;10.95;9.68;;;6.60;99.90;;;;;;6043944;23;20190;-67
2023/03/06 12:21:02;;;;;;;11.30;10.10;;;6.60;99.90;;;;;;6034776;23;20194;-67
2023/03/06 12:23:44;;;;;;;11.13;9.93;;;6.60;99.90;;;;;;6045518;23;20802;-68
2023/03/06 12:26:34;;;;;;;10.70;9.50;;;6.70;99.90;;;;;;6042732;23;20213;-67
2023/03/06 12:29:19;;;;;;;11.05;9.95;;;6.90;99.90;;;;;;6045013;23;20522;-66
2023/03/06 12:32:00;;;;;;;11.32;8.90;;;7.00;99.90;;;;;;6039122;23;20228;-66
2023/03/06 12:34:40;;;;;;;11.50;9.02;;;7.00;99.90;;;;;;6046137;23;20656;-66
2023/03/06 12:37:19;;;;;;;10.57;9.15;;;7.10;99.90;;;;;;6047833;23;20202;-65
2023/03/06 12:40:01;;;;;;;9.98;8.95;;;7.20;99.90;;;;;;6047575;23;20257;-67
2023/03/06 12:42:43;;;;;;;9.77;8.77;;;7.20;99.90;;;;;;6038458;23;20193;-68
2023/03/06 12:45:26;;;;;;;11.38;9.43;;;7.20;99.90;;;;;;6050621;23;20218;-67
2023/03/06 12:47:56;;;;;;;10.50;9.40;;;7.10;99.90;;;;;;6041045;23;20188;-66
2023/03/06 12:50:25;;;;;;;9.90;9.00;;;7.20;99.90;;;;;;6040232;23;20190;-67
2023/03/06 12:52:53;;;;;;;10.27;8.25;;;7.20;99.90;;;;;;6033778;23;20189;-67
2023/03/06 12:55:21;;;;;;;9.70;8.70;;;7.20;99.90;;;;;;6037255;23;20190;-68
2023/03/06 12:57:49;;;;;;;9.43;8.50;;;7.30;99.90;;;;;;6031630;23;20213;-64
2023/03/06 13:00:53;;;;;;;9.60;7.95;;;7.30;99.90;;;;;;6030489;23;20186;-67